Private Wetterstation Sandau
Wetterdaten: Mrz 2013
Datum Temp. A. Feuchte A. Luftdruck Regen Wind Richtung Taupunkt Windchill
01.03.2013 2,3 C 84 % 1023,2 hPa 0,0 l/m 4,8 km/h (1 Bft) NW -0,2 C 1,3 C
02.03.2013 2,0 C 80 % 1021,6 hPa 0,0 l/m 11,2 km/h (2 Bft) W -1,3 C -0,4 C
03.03.2013 2,7 C 79 % 1021,8 hPa 0,0 l/m 4,9 km/h (1 Bft) W -0,6 C 1,7 C
04.03.2013 3,1 C 76 % 1022,2 hPa 0,0 l/m 4,9 km/h (1 Bft) S-SO -1,0 C 1,9 C
05.03.2013 4,0 C 70 % 1012,0 hPa 0,0 l/m 5,7 km/h (1 Bft) SO -1,6 C 3,4 C
06.03.2013 4,6 C 75 % 1006,7 hPa 0,0 l/m 1,8 km/h (1 Bft) O-SO 0,4 C 4,6 C
07.03.2013 5,0 C 69 % 1007,0 hPa 0,0 l/m 5,0 km/h (1 Bft) O-NO -0,4 C 4,3 C
08.03.2013 1,2 C 80 % 1009,0 hPa 0,5 l/m 7,5 km/h (2 Bft) SO -1,9 C -1,1 C
09.03.2013 0,2 C 85 % 1005,9 hPa 0,5 l/m 14,6 km/h (3 Bft) O-SO -2,0 C -4,0 C
10.03.2013 -2,8 C 86 % 1004,1 hPa 0,0 l/m 7,1 km/h (2 Bft) O-NO -4,9 C -4,6 C
11.03.2013 -2,8 C 77 % 1008,9 hPa 0,5 l/m 3,1 km/h (1 Bft) O-NO -6,4 C -3,2 C
12.03.2013 -2,5 C 72 % 1006,5 hPa 0,5 l/m 7,3 km/h (2 Bft) O-NO -7,1 C -4,8 C
13.03.2013 -4,5 C 71 % 1007,0 hPa 0,0 l/m 1,3 km/h (1 Bft) W-SW -9,3 C -4,8 C
14.03.2013 -1,8 C 79 % 1011,7 hPa 0,0 l/m 1,3 km/h (1 Bft) O-SO -5,1 C -1,8 C
15.03.2013 -2,7 C 76 % 1017,3 hPa 0,0 l/m 1,8 km/h (1 Bft) W-NW -6,5 C -2,7 C
16.03.2013 -1,6 C 65 % 1016,6 hPa 0,5 l/m 6,4 km/h (2 Bft) SO -7,6 C -3,3 C
17.03.2013 0,5 C 62 % 1007,9 hPa 1,0 l/m 11,6 km/h (2 Bft) SO -6,0 C -3,0 C
18.03.2013 -0,8 C 84 % 998,8 hPa 0,0 l/m 10,8 km/h (2 Bft) SO -3,2 C -4,1 C
19.03.2013 -0,7 C 87 % 999,1 hPa 0,0 l/m 2,8 km/h (1 Bft) N-NO -2,7 C -0,7 C
20.03.2013 0,7 C 80 % 1008,6 hPa 0,5 l/m 3,9 km/h (1 Bft) NW -2,6 C 0,2 C
Min-Datum 13.03.13 05.03.13 19.03.13 7 Tage 01.03.13 - 13.03.13 16.03.13
Min-Zeit 06:16 15:21 03:26 - 04:36 - 05:56 05:41
Minimum -9,9 C 42 % 995,2 hPa - 0,0 km/h (0 Bft) - -12,3 C -12,8 C
Max-Datum 05.03.13 01.03.13 01.03.13 17.03.13 08.03.13 - 06.03.13 05.03.13
Max-Zeit 15:26 02:31 23:16 14:21 12:06 - 13:31 15:26
Maximum 12,4 C 94 % 1025,3 hPa 1,0 l/m 33,5 km/h
SO (5 Bft)
- 3,3 C 12,4 C
Durchschnitt 0,3 C 77 % 1010,8 hPa #4,1 l/m 5,9 km/h (2 Bft) O-NO -3,5 C -1,1 C

Durchschnitt Minimum Temp.-3,3 C
Durchschnitt Maximum Temp.5,1 C
(c) by David Heller